Data for 11/21/2008

Time Sea-Level Adjusted Pressure Absolute Pressure Temperature Relative Humidity Dew Point   
(mb) (inHg) (mb) (inHg) (C) (F) (%) (C) (F)
00:05 1018 30.06 847 25.01 -3.5 25.7 94 -4.3 24.3
00:10 1018 30.06 847 25.01 -3.7 25.4 96 -4.3 24.3
00:15 1018 30.06 847 25.01 -3.8 25.2 96 -4.4 24.1
00:20 1018 30.06 847 25.01 -3.8 25.1 96 -4.3 24.2
00:25 1018 30.06 847 25.01 -3.8 25.1 97 -4.3 24.3
00:30 1018 30.06 847 25.01 -3.8 25.2 97 -4.2 24.4
00:35 1018 30.06 847 25.01 -3.5 25.6 97 -3.9 25
00:40 1018 30.06 847 25.01 -3.4 25.9 97 -3.8 25.1
00:45 1018 30.06 847 25.01 -3.3 26 97 -3.7 25.3
00:50 1018 30.06 847 25.01 -3.2 26.3 97 -3.6 25.6
00:55 1017 30.03 847 25.01 -3 26.6 97 -3.4 25.9
01:00 1017 30.03 847 25.01 -2.8 26.9 97 -3.3 26.1
01:05 1017 30.03 847 25.01 -2.9 26.9 97 -3.3 26
01:10 1018 30.06 847 25.01 -2.9 26.8 97 -3.3 26.1
01:15 1017 30.03 847 25.01 -2.9 26.9 97 -3.2 26.2
01:20 1017 30.03 847 25.01 -2.9 26.8 98 -3.2 26.2
01:25 1017 30.03 847 25.01 -2.8 26.9 97 -3.2 26.2
01:30 1017 30.03 846 24.98 -2.9 26.8 97 -3.2 26.2
01:35 1017 30.03 846 24.98 -2.9 26.8 97 -3.2 26.2
01:40 1017 30.03 847 25.01 -2.8 27 98 -3 26.5
01:45 1017 30.03 847 25.01 -2.2 28 99 -2.4 27.7
01:50 1017 30.03 847 25.01 -1.8 28.8 99 -1.9 28.6
01:55 1017 30.03 847 25.01 -1.3 29.7 98 -1.5 29.3
02:00 1018 30.06 847 25.01 -1.1 30.1 97 -1.5 29.3
02:05 1018 30.06 847 25.01 -1.1 30 97 -1.6 29.1
02:10 1018 30.06 847 25.01 -1.1 30 96 -1.7 29
02:15 1018 30.06 847 25.01 -1.2 29.8 96 -1.8 28.8
02:20 1018 30.06 847 25.01 -1.3 29.7 96 -1.8 28.7
02:25 1018 30.06 847 25.01 -1.4 29.4 94 -2.2 28
02:30 1018 30.06 847 25.01 -2 28.5 97 -2.4 27.7
02:35 1018 30.06 847 25.01 -1.9 28.7 97 -2.3 27.8
02:40 1018 30.06 847 25.01 -2 28.3 96 -2.5 27.4
02:45 1018 30.06 847 25.01 -2.1 28.3 97 -2.4 27.7
02:50 1018 30.06 847 25.01 -1.7 28.9 98 -2 28.4
02:55 1018 30.06 847 25.01 -1 30.2 96 -1.6 29.1
03:00 1018 30.06 847 25.01 -0.8 30.5 93 -1.8 28.8
03:05 1018 30.06 847 25.01 -0.9 30.5 93 -1.8 28.8
03:10 1018 30.06 847 25.01 -0.8 30.6 93 -1.8 28.8
03:15 1018 30.06 847 25.01 -0.7 30.8 92 -1.8 28.7
03:20 1018 30.06 847 25.01 -0.7 30.8 91 -1.9 28.5
03:25 1018 30.06 847 25.01 -0.7 30.7 92 -1.8 28.7
03:30 1018 30.06 847 25.01 -0.8 30.6 92 -2 28.4
03:35 1018 30.06 847 25.01 -0.9 30.5 92 -2 28.4
03:40 1018 30.06 847 25.01 -0.9 30.4 92 -2 28.3
03:45 1018 30.06 847 25.01 -1 30.2 92 -2.2 28.1
03:50 1018 30.06 847 25.01 -0.8 30.5 90 -2.2 28
03:55 1018 30.06 847 25.01 -0.8 30.5 90 -2.2 28
04:00 1018 30.06 847 25.01 -0.9 30.4 90 -2.3 27.8
04:05 1018 30.06 847 25.01 -0.8 30.5 90 -2.3 27.8
04:10 1018 30.06 847 25.01 -0.8 30.5 89 -2.4 27.6
04:15 1018 30.06 847 25.01 -0.7 30.7 90 -2.2 28.1
04:20 1018 30.06 847 25.01 -0.6 31 89 -2.1 28.2
04:25 1018 30.06 847 25.01 -0.6 30.9 89 -2.2 28
04:30 1018 30.06 847 25.01 -0.8 30.5 89 -2.5 27.6
04:35 1018 30.06 847 25.01 -1 30.2 87 -2.9 26.8
04:40 1018 30.06 847 25.01 -0.8 30.5 83 -3.3 26.1
04:45 1018 30.06 847 25.01 -0.4 31.2 78 -3.8 25.1
04:50 1018 30.06 847 25.01 -0.2 31.6 77 -3.9 25
04:55 1018 30.06 847 25.01 -0.4 31.3 79 -3.6 25.4
05:00 1018 30.06 847 25.01 -0.8 30.6 79 -4 24.8
05:05 1018 30.06 847 25.01 -0.8 30.5 78 -4.3 24.3
05:10 1018 30.06 847 25.01 -0.6 30.9 72 -5.1 22.8
05:15 1018 30.06 847 25.01 -0.3 31.4 68 -5.5 22.1
05:20 1018 30.06 847 25.01 -0.1 31.9 65 -5.8 21.6
05:25 1018 30.06 847 25.01 0.2 32.3 65 -5.7 21.7
05:30 1018 30.06 847 25.01 0.4 32.8 63 -5.8 21.5
05:35 1018 30.06 847 25.01 0.5 32.9 64 -5.6 22
05:40 1018 30.06 847 25.01 0.3 32.5 64 -5.7 21.7
05:45 1018 30.06 847 25.01 -0.1 31.8 65 -5.9 21.3
05:50 1018 30.06 847 25.01 -0.5 31.2 66 -5.9 21.3
05:55 1018 30.06 848 25.04 -0.8 30.5 66 -6.3 20.6
06:00 1018 30.06 848 25.04 -0.8 30.6 66 -6.4 20.4
06:05 1018 30.06 848 25.04 -0.7 30.7 66 -6.3 20.6
06:10 1018 30.06 848 25.04 -0.9 30.4 66 -6.5 20.3
06:15 1018 30.06 848 25.04 -0.7 30.7 63 -6.9 19.6
06:20 1018 30.06 848 25.04 -0.2 31.6 60 -6.9 19.5
06:25 1018 30.06 848 25.04 0.1 32.1 60 -6.8 19.8
06:30 1018 30.06 848 25.04 0 32 61 -6.7 19.9
06:35 1018 30.06 848 25.04 -0 32 60 -6.8 19.7
06:40 1019 30.09 848 25.04 0.1 32.1 59 -7 19.3
06:45 1019 30.09 848 25.04 0.2 32.4 58 -7.1 19.2
06:50 1019 30.09 848 25.04 0.3 32.5 58 -7 19.3
06:55 1019 30.09 848 25.04 0.2 32.4 58 -7.1 19.2
07:00 1019 30.09 848 25.04 0.2 32.4 58 -7.1 19.2
07:05 1019 30.09 848 25.04 0.3 32.6 59 -6.9 19.6
07:10 1019 30.09 848 25.04 0.3 32.5 58 -7.1 19.2
07:15 1019 30.09 848 25.04 0.1 32.3 59 -6.9 19.5
07:20 1019 30.09 849 25.07 -0.1 31.9 61 -6.7 19.9
07:25 1019 30.09 849 25.07 -0.5 31.1 62 -6.9 19.5
07:30 1019 30.09 849 25.07 -0.7 30.7 61 -7.3 18.8
07:35 1020 30.12 849 25.07 -0.9 30.5 62 -7.3 18.8
07:40 1020 30.12 849 25.07 -0.9 30.4 65 -6.7 19.9
07:45 1020 30.12 849 25.07 -1 30.2 65 -6.7 20
07:50 1020 30.12 849 25.07 -1 30.1 65 -6.8 19.8
07:55 1020 30.12 849 25.07 -0.9 30.3 66 -6.6 20.1
08:00 1020 30.12 849 25.07 -0.8 30.5 64 -6.9 19.6
08:05 1020 30.12 849 25.07 -0.6 30.9 63 -6.8 19.8
08:10 1020 30.12 849 25.07 -0.4 31.4 63 -6.7 20
08:15 1020 30.12 849 25.07 -0.2 31.7 63 -6.3 20.6
08:20 1020 30.12 849 25.07 -0.3 31.5 64 -6.3 20.6
08:25 1020 30.12 849 25.07 -0.3 31.5 65 -6.2 20.9
08:30 1020 30.12 850 25.1 -0.4 31.2 66 -6.1 21
08:35 1021 30.15 850 25.1 -0.4 31.3 64 -6.4 20.4
08:40 1021 30.15 850 25.1 -0.3 31.5 63 -6.5 20.4
08:45 1021 30.15 850 25.1 -0.2 31.7 62 -6.5 20.3
08:50 1021 30.15 850 25.1 -0.2 31.6 61 -6.8 19.7
08:55 1021 30.15 850 25.1 -0.2 31.6 62 -6.5 20.3
09:00 1021 30.15 850 25.1 0.1 32.2 61 -6.6 20.1
09:05 1021 30.15 850 25.1 0.3 32.6 59 -6.8 19.8
09:10 1021 30.15 850 25.1 0.5 32.9 58 -6.9 19.6
09:15 1021 30.15 850 25.1 0.7 33.2 56 -7.1 19.2
09:20 1021 30.15 850 25.1 0.9 33.6 57 -6.6 20
09:25 1021 30.15 850 25.1 1 33.8 57 -6.7 19.9
09:30 1021 30.15 850 25.1 1 33.8 55 -7 19.3
09:35 1021 30.15 850 25.1 1 33.8 54 -7.3 18.8
09:40 1021 30.15 850 25.1 1.3 34.3 52 -7.5 18.4
09:45 1021 30.15 850 25.1 1.5 34.7 53 -7.2 19.1
09:50 1021 30.15 850 25.1 1.8 35.2 51 -7.4 18.7
09:55 1021 30.15 851 25.13 1.9 35.4 50 -7.5 18.6
10:00 1021 30.15 851 25.13 1.9 35.5 51 -7.1 19.3
10:05 1022 30.18 851 25.13 1.8 35.3 50 -7.6 18.4
10:10 1022 30.18 851 25.13 2 35.6 47 -8 17.5
10:15 1022 30.18 851 25.13 2 35.6 48 -7.8 18
10:20 1022 30.18 851 25.13 2 35.7 50 -7.3 18.9
10:25 1022 30.18 851 25.13 2 35.7 50 -7.3 18.8
10:30 1022 30.18 851 25.13 2.1 35.7 48 -7.7 18.1
10:35 1022 30.18 851 25.13 2.2 35.9 48 -7.7 18.2
10:40 1022 30.18 851 25.13 2.4 36.3 49 -7.2 19
10:45 1022 30.18 851 25.13 2.4 36.3 51 -6.8 19.7
10:50 1022 30.18 851 25.13 2.4 36.3 46 -8.1 17.4
10:55 1022 30.18 851 25.13 2.4 36.3 49 -7.2 19
11:00 1022 30.18 851 25.13 2.1 35.7 49 -7.5 18.5
11:05 1022 30.18 852 25.16 2 35.6 49 -7.6 18.3
11:10 1022 30.18 852 25.16 2.2 35.9 48 -7.7 18.2
11:15 1022 30.18 852 25.16 2.2 35.9 49 -7.5 18.5
11:20 1023 30.21 852 25.16 2.2 36 48 -7.7 18.2
11:25 1023 30.21 852 25.16 2.3 36.2 49 -7.4 18.7
11:30 1023 30.21 852 25.16 2.6 36.6 47 -7.6 18.3
11:35 1023 30.21 852 25.16 2.7 36.9 45 -7.9 17.8
11:40 1023 30.21 852 25.16 2.7 36.8 46 -7.9 17.8
11:45 1023 30.21 852 25.16 2.8 37.1 45 -7.8 17.9
11:50 1023 30.21 852 25.16 3.2 37.8 44 -7.9 17.8
11:55 1023 30.21 852 25.16 3.4 38.1 46 -7.1 19.2
12:00 1023 30.21 852 25.16 3.4 38.1 45 -7.3 18.8
12:05 1022 30.18 852 25.16 3.4 38.1 43 -8.1 17.4
12:10 1022 30.18 852 25.16 3.3 37.9 43 -8.1 17.4
12:15 1023 30.21 852 25.16 3.3 37.9 43 -8.2 17.3
12:20 1023 30.21 852 25.16 3.6 38.4 43 -7.9 17.7
12:25 1023 30.21 852 25.16 3.7 38.7 44 -7.5 18.5
12:30 1023 30.21 852 25.16 3.7 38.6 45 -7.2 19
12:35 1023 30.21 852 25.16 3.8 38.8 43 -7.8 18
12:40 1023 30.21 852 25.16 3.8 38.8 44 -7.5 18.6
12:45 1023 30.21 852 25.16 3.7 38.7 45 -7.2 19.1
12:50 1023 30.21 852 25.16 3.6 38.5 44 -7.5 18.5
12:55 1023 30.21 852 25.16 3.6 38.6 44 -7.5 18.5
13:00 1022 30.18 852 25.16 3.7 38.6 44 -7.5 18.5
13:05 1022 30.18 852 25.16 3.6 38.5 44 -7.4 18.6
13:10 1022 30.18 852 25.16 3.9 39.1 44 -7.3 18.9
13:15 1022 30.18 852 25.16 4.4 39.9 41 -7.8 18
13:20 1022 30.18 852 25.16 4.8 40.7 41 -7.2 19
13:25 1022 30.18 852 25.16 4.8 40.7 41 -7.4 18.6
13:30 1022 30.18 852 25.16 4.8 40.6 40 -7.8 18
13:35 1022 30.18 852 25.16 4.6 40.3 38 -8.7 16.4
13:40 1022 30.18 852 25.16 4.7 40.5 38 -8.4 16.8
13:45 1022 30.18 852 25.16 4.7 40.5 37 -8.7 16.4
13:50 1022 30.18 852 25.16 4.9 40.8 37 -8.5 16.7
13:55 1022 30.18 852 25.16 5 41 38 -8.2 17.2
14:00 1022 30.18 852 25.16 5 41 38 -8.2 17.2
14:05 1022 30.18 852 25.16 5.2 41.4 37 -8.4 16.8
14:10 1022 30.18 852 25.16 5.4 41.7 37 -8.1 17.4
14:15 1022 30.18 852 25.16 5.3 41.6 36 -8.4 16.8
14:20 1022 30.18 852 25.16 5.3 41.6 37 -8.2 17.2
14:25 1022 30.18 852 25.16 5.5 42 37 -8.1 17.3
14:30 1022 30.18 852 25.16 5.6 42 38 -7.8 18
14:35 1022 30.18 851 25.13 5.3 41.6 38 -7.7 18.2
14:40 1022 30.18 851 25.13 5.4 41.6 39 -7.6 18.4
14:45 1022 30.18 851 25.13 5.3 41.5 38 -8 17.7
14:50 1022 30.18 851 25.13 5.2 41.3 38 -8 17.6
14:55 1022 30.18 851 25.13 5 40.9 38 -8.1 17.4
15:00 1022 30.18 851 25.13 5.1 41.2 38 -8 17.6
15:05 1022 30.18 851 25.13 5.1 41.2 37 -8.3 17
15:10 1022 30.18 851 25.13 5.3 41.6 36 -8.4 16.8
15:15 1022 30.18 851 25.13 5.4 41.7 37 -8.3 17.1
15:20 1022 30.18 852 25.16 4.7 40.5 39 -8 17.6
15:25 1022 30.18 851 25.13 4.2 39.6 41 -8 17.7
15:30 1022 30.18 851 25.13 4.1 39.4 41 -7.9 17.7
15:35 1022 30.18 851 25.13 3.9 39.1 42 -7.8 18
15:40 1022 30.18 851 25.13 4.5 40.1 41 -7.6 18.4
15:45 1022 30.18 851 25.13 4.7 40.4 41 -7.6 18.3
15:50 1022 30.18 851 25.13 4.4 40 41 -7.8 18
15:55 1022 30.18 851 25.13 4.2 39.5 41 -8.1 17.5
16:00 1022 30.18 851 25.13 4.1 39.3 41 -8.1 17.4
16:05 1022 30.18 851 25.13 4 39.2 41 -8.2 17.3
16:10 1022 30.18 851 25.13 3.8 38.9 42 -7.9 17.7
16:15 1022 30.18 851 25.13 3.7 38.7 42 -7.9 17.8
16:20 1022 30.18 851 25.13 3.5 38.4 42 -8.2 17.3
16:25 1022 30.18 851 25.13 3.4 38.2 42 -8.4 16.8
16:30 1022 30.18 851 25.13 3.1 37.5 45 -7.7 18.2
16:35 1022 30.18 851 25.13 2.4 36.3 46 -8.1 17.5
16:40 1022 30.18 851 25.13 1.7 35.1 48 -8 17.5
16:45 1022 30.18 851 25.13 1.6 34.8 47 -8.5 16.8
16:50 1022 30.18 851 25.13 1.7 35 48 -8.3 17.1
16:55 1022 30.18 851 25.13 1.8 35.2 46 -8.5 16.7
17:00 1022 30.18 851 25.13 1.9 35.5 46 -8.6 16.5
17:05 1022 30.18 851 25.13 2.1 35.7 46 -8.2 17.2
17:10 1022 30.18 851 25.13 1.5 34.8 56 -6.4 20.5
17:15 1022 30.18 851 25.13 -0.3 31.4 60 -7.2 19
17:20 1022 30.18 851 25.13 -0.8 30.5 59 -7.9 17.9
17:25 1022 30.18 851 25.13 -0.9 30.5 59 -7.8 17.9
17:30 1022 30.18 851 25.13 -0.6 31 56 -8.3 17
17:35 1022 30.18 851 25.13 0.2 32.3 55 -7.8 18
17:40 1022 30.18 851 25.13 -0.1 31.8 57 -7.7 18.2
17:45 1022 30.18 851 25.13 -0.3 31.5 57 -7.7 18.1
17:50 1022 30.18 851 25.13 -0.8 30.5 62 -7.2 19.1
17:55 1022 30.18 851 25.13 -1.2 29.8 63 -7.4 18.8
18:00 1022 30.18 851 25.13 -1.5 29.4 65 -7.2 19.1
18:05 1022 30.18 851 25.13 -1.5 29.3 64 -7.4 18.7
18:10 1022 30.18 851 25.13 -1.6 29.2 61 -8 17.5
18:15 1022 30.18 851 25.13 -1.4 29.4 60 -8.2 17.3
18:20 1022 30.18 851 25.13 -1.5 29.2 61 -8.1 17.5
18:25 1022 30.18 851 25.13 -1.7 28.9 63 -7.8 17.9
18:30 1022 30.18 851 25.13 -1.7 28.9 62 -8 17.5
18:35 1022 30.18 851 25.13 -1.6 29.1 61 -8.2 17.3
18:40 1022 30.18 851 25.13 -1.7 29 62 -8 17.6
18:45 1022 30.18 851 25.13 -2.1 28.2 64 -8.1 17.3
18:50 1022 30.18 851 25.13 -2.3 27.9 64 -8.1 17.4
18:55 1022 30.18 851 25.13 -2.9 26.7 66 -8.5 16.7
19:00 1022 30.18 851 25.13 -2.9 26.8 62 -9.2 15.4
19:05 1022 30.18 851 25.13 -2.3 27.9 56 -9.8 14.4
19:10 1021 30.15 851 25.13 -1.7 29 56 -9.4 15.1
19:15 1021 30.15 851 25.13 -1.8 28.8 59 -8.8 16.1
19:20 1021 30.15 851 25.13 -2.3 27.9 58 -9.4 15.2
19:25 1021 30.15 851 25.13 -2 28.5 57 -9.4 15.1
19:30 1021 30.15 851 25.13 -1.9 28.7 58 -9 15.8
19:35 1021 30.15 850 25.1 -2.7 27.2 60 -9.4 15.1
19:40 1021 30.15 850 25.1 -2.3 27.8 59 -9.3 15.3
19:45 1021 30.15 850 25.1 -2.5 27.5 58 -9.7 14.6
19:50 1021 30.15 850 25.1 -2.9 26.8 60 -9.6 14.8
19:55 1021 30.15 850 25.1 -3.2 26.2 60 -9.8 14.3
20:00 1021 30.15 850 25.1 -2.8 26.9 55 -10.7 12.8
20:05 1021 30.15 850 25.1 -2.3 27.9 56 -10 14
20:10 1021 30.15 850 25.1 -2.4 27.7 57 -9.7 14.5
20:15 1021 30.15 850 25.1 -3 26.6 58 -10 13.9
20:20 1021 30.15 850 25.1 -2.4 27.7 53 -10.6 12.9
20:25 1021 30.15 850 25.1 -1.9 28.6 51 -10.8 12.6
20:30 1021 30.15 850 25.1 -2 28.3 51 -10.9 12.5
20:35 1021 30.15 850 25.1 -2 28.5 48 -11.5 11.3
20:40 1021 30.15 850 25.1 -1.5 29.3 47 -11.4 11.5
20:45 1021 30.15 850 25.1 -1.2 29.8 47 -11.1 12.1
20:50 1021 30.15 850 25.1 -1.5 29.3 49 -10.8 12.6
20:55 1021 30.15 850 25.1 -2.2 28 53 -10.6 12.9
21:00 1021 30.15 850 25.1 -2.8 26.9 53 -11.2 11.8
21:05 1021 30.15 850 25.1 -2.8 26.9 53 -11.1 12.1
21:10 1021 30.15 850 25.1 -3 26.6 55 -10.9 12.3
21:15 1021 30.15 850 25.1 -3.3 26 55 -11.2 11.9
21:20 1021 30.15 850 25.1 -3 26.6 53 -11.3 11.6
21:25 1021 30.15 850 25.1 -2.9 26.8 52 -11.4 11.5
21:30 1021 30.15 850 25.1 -3.3 26.1 52 -11.8 10.8
21:35 1021 30.15 850 25.1 -3 26.7 50 -11.9 10.5
21:40 1021 30.15 850 25.1 -3.2 26.3 52 -11.6 11.2
21:45 1021 30.15 850 25.1 -3.3 26 55 -11.2 11.9
21:50 1021 30.15 850 25.1 -3.5 25.6 55 -11.2 11.8
21:55 1020 30.12 850 25.1 -3.2 26.3 53 -11.4 11.4
22:00 1020 30.12 850 25.1 -3.1 26.3 52 -11.8 10.8
22:05 1020 30.12 849 25.07 -3.2 26.2 49 -12.5 9.6
22:10 1020 30.12 849 25.07 -3 26.5 48 -12.7 9.1
22:15 1020 30.12 850 25.1 -2.9 26.8 48 -12.6 9.4
22:20 1020 30.12 850 25.1 -2.9 26.8 47 -12.6 9.4
22:25 1020 30.12 850 25.1 -2.9 26.7 48 -12.4 9.6
22:30 1020 30.12 850 25.1 -3.1 26.4 48 -12.7 9.1
22:35 1020 30.12 850 25.1 -3 26.5 47 -12.8 9
22:40 1020 30.12 850 25.1 -2.8 27 46 -12.9 8.8
22:45 1020 30.12 850 25.1 -2.6 27.3 45 -12.9 8.8
22:50 1020 30.12 849 25.07 -2.8 27 45 -13 8.5
22:55 1020 30.12 849 25.07 -2.7 27.2 45 -13 8.6
23:00 1020 30.12 849 25.07 -2.7 27.2 45 -13 8.6
23:05 1020 30.12 849 25.07 -2.4 27.7 44 -13.1 8.4
23:10 1020 30.12 849 25.07 -3 26.7 49 -12.3 9.9
23:15 1020 30.12 849 25.07 -3.5 25.7 49 -12.7 9.2
23:20 1020 30.12 849 25.07 -3.5 25.7 49 -12.8 9
23:25 1020 30.12 849 25.07 -3.4 25.9 49 -12.6 9.3
23:30 1020 30.12 849 25.07 -3.5 25.8 49 -12.8 9
23:35 1020 30.12 849 25.07 -3.4 25.9 49 -12.6 9.4
23:40 1020 30.12 849 25.07 -3.2 26.2 48 -12.7 9.1
23:45 1020 30.12 849 25.07 -3.1 26.4 48 -12.6 9.3
23:50 1020 30.12 849 25.07 -3 26.6 48 -12.4 9.7
23:55 1020 30.12 849 25.07 -3 26.7 49 -12.3 9.9
24:00 1020 30.12 849 25.07 -3 26.5 50 -12.1 10.3